Time;durP1;ratioP1;P1;durP2;ratioP2;P2;SDS_P1;SDS_P2;PMS_P1;PMS_P2;Temp;Humidity;BMP_temperature;BMP_pressure;BME280_temperature;BME280_humidity;BME280_pressure;Samples;Min_cycle;Max_cycle;Signal;HPM_P1;HPM_P2
2023/03/25 00:02:26;;;;;;;12.07;5.88;;;;;;;7.54;92.64;100751.94;4947851;29;20041;-89
2023/03/25 00:04:52;;;;;;;9.43;5.80;;;;;;;7.48;92.72;100744.44;4935617;29;20429;-88
2023/03/25 00:07:41;;;;;;;10.23;5.70;;;;;;;7.50;93.58;100745.16;4917989;29;20563;-90
2023/03/25 00:10:27;;;;;;;10.98;5.60;;;;;;;7.34;93.44;100719.78;4937002;29;20044;-89
2023/03/25 00:19:52;;;;;;;10.18;5.32;;;;;;;7.38;96.17;100729.22;4917911;29;20044;-91
2023/03/25 00:25:59;;;;;;;10.70;5.65;;;;;;;7.12;96.78;100694.13;4914167;29;20484;-91
2023/03/25 00:31:27;;;;;;;37.47;23.17;;;;;;;7.24;97.71;100723.44;4915870;29;19926;-90
2023/03/25 00:44:42;;;;;;;9.80;5.82;;;;;;;7.26;99.09;100705.41;4918828;29;20082;-91
2023/03/25 00:47:16;;;;;;;14.55;6.70;;;;;;;7.25;99.41;100709.91;4916526;29;20055;-89
2023/03/25 00:59:56;;;;;;;12.32;6.40;;;;;;;7.29;98.82;100700.63;4916720;29;20044;-89
2023/03/25 01:02:24;;;;;;;13.00;6.75;;;;;;;7.36;98.70;100701.78;4914486;29;20063;-90
2023/03/25 01:05:24;;;;;;;13.32;6.97;;;;;;;7.35;98.99;100696.56;4918705;29;20047;-91
2023/03/25 01:11:26;;;;;;;10.77;6.82;;;;;;;7.31;99.61;100685.31;4936641;29;20082;-90
2023/03/25 01:19:58;;;;;;;10.88;6.22;;;;;;;7.22;99.32;100646.03;4934315;28;20118;-90
2023/03/25 01:26:05;;;;;;;14.65;7.10;;;;;;;7.48;98.73;100673.06;4938420;29;20154;-91
2023/03/25 01:28:30;;;;;;;14.30;7.18;;;;;;;7.35;99.27;100643.06;4921830;29;20054;-92
2023/03/25 01:31:04;;;;;;;11.70;6.60;;;;;;;7.53;99.33;100669.97;4921988;29;20027;-93
2023/03/25 01:33:31;;;;;;;11.57;6.47;;;;;;;7.61;98.85;100656.75;4938810;29;20031;-94
2023/03/25 01:35:57;;;;;;;10.27;6.47;;;;;;;7.24;98.81;100603.94;4919712;29;20082;-91
2023/03/25 01:38:23;;;;;;;;;;;;;;;7.63;99.12;100657.41;4895279;29;20043;-91
2023/03/25 01:40:50;;;;;;;11.25;6.53;;;;;;;7.46;98.85;100642.09;4896454;29;20376;-92
2023/03/25 01:43:17;;;;;;;10.60;6.25;;;;;;;7.53;99.37;100637.84;4889290;29;20539;-92
2023/03/25 01:45:44;;;;;;;12.77;6.47;;;;;;;7.58;99.19;100631.09;4906335;29;20524;-91
2023/03/25 01:48:21;;;;;;;10.10;6.60;;;;;;;7.45;98.89;100613.66;4886436;29;20115;-92
2023/03/25 01:51:17;;;;;;;12.85;6.78;;;;;;;7.58;99.30;100630.25;4912853;29;20101;-91
2023/03/25 01:53:44;;;;;;;12.77;6.82;;;;;;;7.83;98.92;100661.75;4897605;29;20040;-91
2023/03/25 01:56:12;;;;;;;11.40;6.80;;;;;;;7.73;99.19;100634.19;4902542;29;20136;-88
2023/03/25 01:58:38;;;;;;;11.13;6.60;;;;;;;7.68;98.73;100620.41;4911884;29;20036;-89
2023/03/25 02:01:04;;;;;;;;;;;;;;;7.85;98.74;100650.09;4911700;29;20071;-89
2023/03/25 02:03:29;;;;;;;9.60;6.35;;;;;;;7.54;98.52;100610.97;4933709;29;19915;-89
2023/03/25 02:06:30;;;;;;;9.82;6.65;;;;;;;7.80;98.66;100651.34;4901040;29;20039;-92
2023/03/25 02:08:57;;;;;;;9.45;6.68;;;;;;;7.86;98.44;100643.72;4909104;29;20131;-90
2023/03/25 02:11:27;;;;;;;11.38;6.70;;;;;;;7.95;98.10;100648.22;4918582;29;20103;-91
2023/03/25 02:13:54;;;;;;;10.98;7.00;;;;;;;7.83;97.14;100624.28;4927901;29;20044;-89
2023/03/25 02:16:27;;;;;;;10.57;6.82;;;;;;;8.07;96.38;100640.88;4927770;29;20051;-92
2023/03/25 02:19:21;;;;;;;10.52;6.65;;;;;;;8.13;95.88;100646.50;4928884;29;20425;-91
2023/03/25 02:21:59;;;;;;;10.20;6.88;;;;;;;7.99;96.03;100622.84;4925971;29;20400;-90
2023/03/25 02:28:16;;;;;;;8.85;6.43;;;;;;;7.86;97.06;100630.34;4930184;29;20030;-89
2023/03/25 02:34:45;;;;;;;10.20;6.30;;;;;;;7.92;97.36;100632.47;4919138;29;20034;-90
2023/03/25 02:41:08;;;;;;;9.00;5.93;;;;;;;7.76;96.71;100611.63;4924572;29;20047;-91
2023/03/25 02:43:46;;;;;;;10.23;6.55;;;;;;;7.71;97.28;100625.44;4916907;29;20505;-90
2023/03/25 02:46:41;;;;;;;10.77;6.28;;;;;;;7.78;97.21;100621.22;4871809;29;20040;-91
2023/03/25 02:49:14;;;;;;;9.82;6.45;;;;;;;7.73;97.17;100604.75;4919137;29;20071;-90
2023/03/25 02:55:32;;;;;;;10.15;6.47;;;;;;;7.87;96.84;100608.81;4917902;29;20476;-91
2023/03/25 02:57:59;;;;;;;14.13;6.38;;;;;;;7.63;96.75;100578.97;4885584;29;20055;-89
2023/03/25 03:00:27;;;;;;;10.13;6.30;;;;;;;7.62;96.84;100570.13;4887269;29;20066;-90
2023/03/25 03:02:59;;;;;;;10.55;6.70;;;;;;;7.74;97.50;100609.09;4903748;29;20052;-91
2023/03/25 03:05:31;;;;;;;9.15;6.28;;;;;;;7.78;97.65;100610.50;4903489;29;20138;-90
2023/03/25 03:08:13;;;;;;;9.00;6.53;;;;;;;7.82;98.02;100603.88;4885244;29;20075;-90
2023/03/25 03:10:46;;;;;;;10.18;6.80;;;;;;;7.66;97.96;100587.56;4928766;29;20055;-90
2023/03/25 03:13:16;;;;;;;12.38;6.10;;;;;;;7.57;97.85;100580.41;4904952;29;20035;-90
2023/03/25 03:19:45;;;;;;;9.35;6.10;;;;;;;7.76;97.95;100611.63;4937957;29;20119;-90
2023/03/25 03:22:24;;;;;;;9.55;6.68;;;;;;;7.65;97.86;100574.34;4936046;29;20043;-90
2023/03/25 03:25:02;;;;;;;9.68;6.63;;;;;;;7.63;97.61;100585.16;4937872;29;20040;-89
2023/03/25 03:27:32;;;;;;;13.00;6.85;;;;;;;7.39;98.09;100543.66;4901963;29;20051;-92
2023/03/25 03:33:39;;;;;;;9.32;5.10;;;;;;;7.33;98.60;100538.91;4930149;29;20040;-91
2023/03/25 03:36:34;;;;;;;10.70;7.07;;;;;;;7.67;98.53;100589.25;4889053;29;20044;-91
2023/03/25 03:39:53;;;;;;;12.52;7.18;;;;;;;7.75;98.97;100583.16;4936535;29;20036;-90
2023/03/25 03:42:22;;;;;;;10.90;7.00;;;;;;;7.59;98.45;100552.53;4918177;29;20500;-89
2023/03/25 03:44:57;;;;;;;12.15;7.22;;;;;;;7.41;98.76;100524.81;4915568;29;20501;-89
2023/03/25 03:47:38;;;;;;;12.48;7.95;;;;;;;7.87;98.60;100578.53;4885959;29;20505;-92
2023/03/25 03:50:08;;;;;;;12.57;7.60;;;;;;;7.88;97.31;100569.50;4900267;29;20052;-90
2023/03/25 03:53:24;;;;;;;11.23;7.15;;;;;;;7.85;98.25;100573.31;4884232;29;20123;-90
2023/03/25 03:55:52;;;;;;;13.05;7.20;;;;;;;7.68;97.94;100540.13;4920974;29;20069;-89
2023/03/25 04:08:33;;;;;;;12.23;7.10;;;;;;;8.00;98.07;100571.00;4925307;29;20043;-91
2023/03/25 04:14:21;;;;;;;13.75;7.85;;;;;;;7.88;98.96;100577.53;4917838;29;20087;-90
2023/03/25 04:16:48;;;;;;;14.23;7.72;;;;;;;7.97;98.51;100576.66;4884783;29;20043;-92
2023/03/25 04:19:32;;;;;;;13.45;8.48;;;;;;;7.78;99.12;100566.84;4900307;29;20143;-91
2023/03/25 04:22:02;;;;;;;12.98;8.07;;;;;;;7.93;98.62;100585.94;4921366;29;20059;-91
2023/03/25 04:24:31;;;;;;;12.98;7.90;;;;;;;8.00;98.32;100587.06;4887341;29;20458;-92
2023/03/25 04:27:21;;;;;;;14.75;7.85;;;;;;;7.72;98.29;100546.84;4907641;29;20094;-90
2023/03/25 04:30:00;;;;;;;13.63;8.45;;;;;;;8.03;98.36;100597.50;4900053;29;20505;-91
2023/03/25 04:32:26;;;;;;;9.27;5.10;;;;;;;8.03;98.07;100592.97;4907052;29;20055;-90
2023/03/25 04:34:56;;;;;;;13.88;7.22;;;;;;;7.98;97.55;100578.31;4911311;29;20028;-91
2023/03/25 04:37:25;;;;;;;12.77;6.72;;;;;;;8.04;97.90;100588.47;4915752;29;20032;-91
2023/03/25 04:39:58;;;;;;;11.13;7.15;;;;;;;7.85;98.43;100564.44;4919674;29;20052;-91
2023/03/25 04:42:31;;;;;;;11.52;6.78;;;;;;;8.19;97.52;100597.72;4898422;29;20040;-90
2023/03/25 04:45:20;;;;;;;12.63;7.28;;;;;;;8.33;96.37;100587.50;4916535;29;20047;-91
2023/03/25 04:47:56;;;;;;;11.80;6.57;;;;;;;7.99;96.25;100550.56;4919299;29;20044;-90
2023/03/25 04:50:25;;;;;;;;;;;;;;;8.13;96.82;100581.38;4899474;29;20385;-90
2023/03/25 04:53:09;;;;;;;10.48;7.20;;;;;;;8.17;96.75;100580.94;4907806;29;20005;-91
2023/03/25 04:56:16;;;;;;;13.80;7.83;;;;;;;8.27;96.68;100569.34;4902081;29;20432;-90
2023/03/25 05:02:11;;;;;;;10.70;6.80;;;;;;;8.25;95.94;100553.41;4937009;29;20050;-90
2023/03/25 05:04:46;;;;;;;11.60;7.88;;;;;;;8.16;96.05;100565.00;4903045;29;20047;-90
2023/03/25 05:07:22;;;;;;;11.07;7.25;;;;;;;8.33;95.45;100560.69;4918012;29;20246;-89
2023/03/25 07:03:48;;;;;;;14.43;6.47;;;;;;;8.98;87.14;100550.72;4937298;28;20068;-91
2023/03/25 07:09:36;;;;;;;12.05;6.47;;;;;;;8.97;86.98;100557.09;4937276;29;20106;-89
2023/03/25 07:18:53;;;;;;;10.90;6.28;;;;;;;8.91;88.15;100564.91;4938314;28;20198;-90
2023/03/25 07:21:33;;;;;;;13.88;7.40;;;;;;;9.23;87.13;100583.13;4908456;29;20051;-91
2023/03/25 07:27:59;;;;;;;12.63;6.75;;;;;;;9.24;86.54;100580.28;4938751;29;20582;-91
2023/03/25 07:34:17;;;;;;;14.05;8.43;;;;;;;9.26;87.88;100585.50;4938286;29;20539;-91
2023/03/25 07:43:53;;;;;;;14.82;7.88;;;;;;;9.25;87.25;100579.31;4938556;28;20047;-90
2023/03/25 07:49:41;;;;;;;18.50;8.32;;;;;;;9.01;87.48;100579.94;4935923;29;20187;-90
2023/03/25 07:55:42;;;;;;;16.30;7.63;;;;;;;9.26;87.49;100582.81;4938081;29;20074;-87
2023/03/25 08:01:32;;;;;;;17.80;7.85;;;;;;;8.95;88.15;100559.06;4940711;29;20042;-89
2023/03/25 08:07:20;;;;;;;22.20;6.65;;;;;;;8.58;88.64;100543.94;4937248;29;20062;-90
2023/03/25 08:10:06;;;;;;;14.82;7.18;;;;;;;8.89;89.21;100583.81;4888703;29;20497;-89
2023/03/25 08:16:00;;;;;;;14.20;7.03;;;;;;;8.79;88.52;100549.03;4948663;29;20050;-87
2023/03/25 08:21:50;;;;;;;14.55;7.22;;;;;;;8.81;88.98;100538.16;4935635;29;20511;-89
2023/03/25 08:27:53;;;;;;;15.43;6.53;;;;;;;8.86;89.32;100550.09;4936097;29;20046;-91
2023/03/25 08:33:43;;;;;;;16.95;7.65;;;;;;;8.87;88.59;100535.72;4936005;29;20479;-91
2023/03/25 08:39:38;;;;;;;15.40;6.80;;;;;;;9.00;87.07;100534.47;4935795;29;20519;-89
2023/03/25 08:42:08;;;;;;;16.10;8.68;;;;;;;8.88;88.17;100524.00;4905478;29;20042;-90
2023/03/25 08:44:34;;;;;;;17.48;8.88;;;;;;;8.96;87.65;100506.28;4919109;29;20144;-91
2023/03/25 08:47:30;;;;;;;16.77;6.47;;;;;;;9.09;87.20;100561.22;4887510;29;20143;-91
2023/03/25 08:49:58;;;;;;;16.58;7.95;;;;;;;8.88;88.38;100531.19;4902353;29;20051;-90
2023/03/25 08:52:24;;;;;;;15.00;8.13;;;;;;;9.04;88.32;100541.22;4886027;29;20524;-89
2023/03/25 08:58:11;;;;;;;16.35;8.35;;;;;;;9.49;85.19;100519.63;4936441;29;20111;-92
2023/03/25 09:00:37;;;;;;;12.52;7.32;;;;;;;9.72;84.43;100538.72;4902426;29;20419;-91
2023/03/25 09:03:54;;;;;;;13.63;7.63;;;;;;;9.88;83.79;100548.72;4916474;28;20113;-92
2023/03/25 09:06:20;;;;;;;15.05;8.30;;;;;;;9.87;83.69;100513.97;4914849;29;20449;-91
2023/03/25 09:12:39;;;;;;;15.35;7.07;;;;;;;9.83;84.43;100540.31;4928782;29;20080;-91
2023/03/25 09:21:53;;;;;;;11.77;7.45;;;;;;;10.13;82.84;100538.94;4939605;29;20043;-90
2023/03/25 09:24:54;;;;;;;9.90;6.28;;;;;;;10.05;82.90;100538.06;4932584;29;20059;-93
2023/03/25 09:27:58;;;;;;;12.50;7.15;;;;;;;9.95;83.21;100538.19;4903122;29;20489;-92
2023/03/25 09:30:24;;;;;;;12.98;8.13;;;;;;;9.80;83.20;100513.75;4901657;29;20043;-90
2023/03/25 09:36:19;;;;;;;12.52;7.70;;;;;;;10.09;82.31;100526.84;4900375;29;20535;-89
2023/03/25 09:38:46;;;;;;;15.60;8.70;;;;;;;10.34;81.68;100526.97;4868453;29;20147;-88
2023/03/25 09:44:59;;;;;;;15.05;7.95;;;;;;;10.06;82.52;100508.34;4901644;29;20131;-90
2023/03/25 09:47:33;;;;;;;11.70;6.55;;;;;;;9.45;83.57;100487.88;4884947;29;20039;-88
2023/03/25 09:50:04;;;;;;;15.52;9.75;;;;;;;9.28;85.25;100482.41;4885033;29;20050;-90
2023/03/25 09:55:56;;;;;;;15.02;8.65;;;;;;;9.46;84.69;100503.00;4905232;29;20076;-92
2023/03/25 10:02:21;;;;;;;14.85;9.85;;;;;;;9.54;85.92;100496.84;4908970;29;20421;-88
2023/03/25 10:05:03;;;;;;;15.60;9.95;;;;;;;9.77;84.51;100489.94;4901353;29;20063;-90
2023/03/25 10:08:00;;;;;;;16.85;10.52;;;;;;;9.82;84.23;100500.19;4896162;29;20088;-91
2023/03/25 10:28:11;;;;;;;21.05;12.25;;;;;;;10.19;80.67;100405.81;4902752;29;20104;-91
2023/03/25 10:34:11;;;;;;;17.77;11.57;;;;;;;10.05;81.86;100449.44;4902385;29;20071;-90
2023/03/25 10:36:44;;;;;;;20.38;12.32;;;;;;;10.17;81.06;100407.81;4884608;29;20501;-90
2023/03/25 10:39:20;;;;;;;21.58;10.70;;;;;;;10.39;79.86;100422.50;4882365;29;20584;-89
2023/03/25 10:41:52;;;;;;;19.40;13.02;;;;;;;10.46;79.89;100428.88;4896854;29;20047;-89
2023/03/25 10:44:20;;;;;;;20.45;12.70;;;;;;;10.19;81.10;100435.38;4904192;29;20036;-90
2023/03/25 10:47:06;;;;;;;24.15;12.65;;;;;;;10.57;79.45;100417.00;4887650;29;20066;-90
2023/03/25 10:49:32;;;;;;;22.38;12.95;;;;;;;10.61;79.26;100431.78;4887121;29;20052;-89
2023/03/25 10:52:00;;;;;;;22.00;13.48;;;;;;;10.47;80.16;100424.38;4903011;29;20067;-92
2023/03/25 10:54:32;;;;;;;22.42;13.50;;;;;;;10.07;81.62;100418.72;4902358;29;20158;-90
2023/03/25 10:56:59;;;;;;;23.27;14.07;;;;;;;10.12;80.72;100402.09;4908198;29;20493;-90
2023/03/25 10:59:36;;;;;;;25.27;14.05;;;;;;;10.24;81.64;100408.84;4887170;29;20538;-89
2023/03/25 11:02:29;;;;;;;23.58;14.63;;;;;;;10.48;80.75;100415.28;4887444;29;20111;-91
2023/03/25 11:05:48;;;;;;;27.90;16.13;;;;;;;10.70;79.54;100411.97;4912135;29;20056;-92
2023/03/25 11:11:35;;;;;;;24.77;14.00;;;;;;;10.19;80.30;100378.13;4912996;29;20111;-90
2023/03/25 11:17:24;;;;;;;25.52;15.40;;;;;;;9.77;82.06;100363.75;4908291;29;20449;-90
2023/03/25 11:20:21;;;;;;;30.25;16.33;;;;;;;10.25;81.69;100385.50;4869546;29;20115;-87
2023/03/25 11:22:51;;;;;;;25.63;12.80;;;;;;;9.99;81.06;100377.56;4884692;29;20044;-90
2023/03/25 11:25:30;;;;;;;22.42;13.18;;;;;;;9.82;83.08;100382.88;4899379;29;20040;-92
2023/03/25 11:27:58;;;;;;;24.38;14.18;;;;;;;9.58;83.25;100347.91;4883110;29;20125;-88
2023/03/25 11:30:25;;;;;;;25.73;15.05;;;;;;;9.53;84.19;100343.03;4885524;29;20062;-90
2023/03/25 11:33:12;;;;;;;28.35;15.75;;;;;;;9.58;84.65;100353.28;4912870;29;20115;-90
2023/03/25 11:35:45;;;;;;;29.80;17.55;;;;;;;9.47;85.72;100351.72;4881158;29;20052;-89
2023/03/25 11:38:52;;;;;;;32.55;16.90;;;;;;;9.73;85.57;100354.31;4895589;29;20075;-90
2023/03/25 11:41:38;;;;;;;27.08;14.30;;;;;;;9.69;84.12;100323.44;4892728;29;20492;-90
2023/03/25 11:44:06;;;;;;;29.58;15.25;;;;;;;9.68;84.27;100330.66;4911692;29;20077;-93
2023/03/25 11:46:36;;;;;;;27.95;15.60;;;;;;;9.68;83.48;100321.75;4879663;29;20044;-87
2023/03/25 11:55:59;;;;;;;27.38;15.20;;;;;;;10.01;82.83;100335.25;4973260;28;20109;-91
2023/03/25 11:58:50;;;;;;;26.23;13.27;;;;;;;9.94;83.25;100333.22;4937867;29;20224;-92
2023/03/25 12:01:35;;;;;;;25.05;13.88;;;;;;;9.70;84.31;100335.88;4942156;28;20050;-92
2023/03/25 12:07:23;;;;;;;27.15;14.80;;;;;;;10.01;82.81;100321.84;4978010;28;20081;-88
2023/03/25 12:10:25;;;;;;;26.25;15.25;;;;;;;9.99;82.81;100288.94;4962600;28;20157;-93
2023/03/25 12:13:25;;;;;;;32.05;15.73;;;;;;;10.28;82.27;100335.00;4934064;29;20451;-91
2023/03/25 12:16:33;;;;;;;31.90;12.93;;;;;;;10.15;82.28;100323.88;4957795;29;20062;-88
2023/03/25 12:19:32;;;;;;;32.00;12.52;;;;;;;9.79;83.48;100334.88;4956192;29;20066;-90
2023/03/25 12:29:08;;;;;;;27.33;14.13;;;;;;;9.38;86.43;100331.22;4975944;28;20543;-89
2023/03/25 12:32:05;;;;;;;34.42;14.75;;;;;;;9.34;86.54;100330.72;4972612;28;20041;-92
2023/03/25 12:38:16;;;;;;;27.90;12.50;;;;;;;8.92;88.21;100288.59;4985327;28;20045;-92
2023/03/25 12:41:01;;;;;;;26.40;14.20;;;;;;;9.01;88.60;100319.81;4964081;28;20053;-90
2023/03/25 12:43:37;;;;;;;27.73;14.48;;;;;;;9.18;88.34;100295.75;4964700;28;20054;-92
2023/03/25 12:46:29;;;;;;;30.77;14.45;;;;;;;9.46;87.21;100291.84;4953337;28;20973;-92
2023/03/25 12:49:25;;;;;;;30.65;16.42;;;;;;;9.60;86.49;100286.84;4954803;29;20039;-90
2023/03/25 12:51:51;;;;;;;;;;;;;;;9.42;86.77;100279.75;4966356;28;20035;-86
2023/03/25 12:54:55;;;;;;;28.50;12.48;;;;;;;9.27;86.76;100286.72;4959849;28;19967;-90
2023/03/25 12:57:47;;;;;;;24.63;12.80;;;;;;;9.28;87.26;100275.00;4960453;28;20074;-89
2023/03/25 13:00:28;;;;;;;27.75;12.82;;;;;;;9.21;87.51;100292.75;4950626;28;20126;-91
2023/03/25 13:06:20;;;;;;;36.17;13.88;;;;;;;9.38;87.07;100280.25;4937307;29;20046;-90
2023/03/25 13:15:27;;;;;;;29.95;15.35;;;;;;;9.65;86.21;100273.78;4967035;28;20046;-91
2023/03/25 13:18:21;;;;;;;30.75;14.30;;;;;;;9.63;84.70;100259.69;5065296;23;20086;-91
2023/03/25 13:24:29;;;;;;;27.67;13.75;;;;;;;9.83;84.03;100270.94;4957771;29;20050;-90
2023/03/25 13:27:17;;;;;;;32.63;14.93;;;;;;;9.89;83.81;100254.19;4928670;29;20502;-90
2023/03/25 13:29:56;;;;;;;27.13;13.40;;;;;;;9.22;85.59;100227.38;4933789;29;20050;-89
2023/03/25 13:32:52;;;;;;;30.48;15.25;;;;;;;9.66;85.49;100264.72;4950609;29;20032;-90
2023/03/25 13:35:48;;;;;;;30.75;15.05;;;;;;;9.47;85.39;100237.16;4936635;29;20040;-90
2023/03/25 13:41:51;;;;;;;30.40;14.45;;;;;;;9.24;87.09;100228.03;4934580;29;20122;-91
2023/03/25 13:44:27;;;;;;;30.13;14.93;;;;;;;9.02;87.76;100219.59;4918720;29;20111;-91
2023/03/25 13:47:16;;;;;;;27.38;13.55;;;;;;;9.09;87.85;100254.66;4916376;29;20059;-90
2023/03/25 13:50:15;;;;;;;29.23;14.63;;;;;;;8.92;88.10;100234.13;4935088;29;20042;-92
2023/03/25 13:53:04;;;;;;;40.10;13.85;;;;;;;8.93;88.65;100236.66;4936529;29;20039;-91
2023/03/25 13:55:41;;;;;;;32.13;16.55;;;;;;;9.06;88.27;100228.13;4935302;29;20028;-90
2023/03/25 14:02:06;;;;;;;36.92;17.30;;;;;;;9.14;88.70;100236.22;4939140;29;20050;-89
2023/03/25 14:08:39;;;;;;;45.42;17.58;;;;;;;8.93;89.90;100239.31;4933881;29;20043;-90
2023/03/25 14:11:59;;;;;;;39.60;18.40;;;;;;;8.98;89.97;100234.31;4934993;29;20048;-88
2023/03/25 14:14:35;;;;;;;37.25;17.02;;;;;;;8.87;89.44;100211.31;4964165;29;20102;-83
2023/03/25 14:17:04;;;;;;;36.67;16.73;;;;;;;8.89;89.40;100192.38;4961044;28;20094;-87
2023/03/25 14:22:57;;;;;;;37.08;16.67;;;;;;;8.76;89.30;100176.75;4948004;29;20501;-88
2023/03/25 14:25:47;;;;;;;47.15;16.65;;;;;;;9.02;89.46;100214.22;4958408;29;20465;-89
2023/03/25 14:28:18;;;;;;;55.55;16.15;;;;;;;8.66;89.36;100176.88;4941724;29;20050;-91
2023/03/25 14:31:15;;;;;;;42.03;18.38;;;;;;;9.07;89.08;100214.56;4933805;29;20122;-89
2023/03/25 14:34:01;;;;;;;38.28;18.25;;;;;;;8.97;89.31;100213.88;4934368;29;20046;-90
2023/03/25 14:36:29;;;;;;;;;;;;;;;8.95;89.58;100204.31;4944662;29;20444;-89
2023/03/25 14:38:57;;;;;;;40.15;18.33;;;;;;;8.96;89.74;100209.50;4938055;29;19915;-91
2023/03/25 14:42:04;;;;;;;34.05;16.35;;;;;;;9.00;88.41;100205.50;4948296;29;20066;-89
2023/03/25 14:45:23;;;;;;;33.90;16.73;;;;;;;9.06;88.61;100204.00;4951656;29;20051;-90
2023/03/25 14:47:52;;;;;;;35.33;18.17;;;;;;;8.86;89.45;100206.13;4951691;29;20858;-87
2023/03/25 14:50:24;;;;;;;33.97;17.45;;;;;;;8.63;89.43;100189.75;4951856;29;20118;-88
2023/03/25 14:52:51;;;;;;;34.33;17.65;;;;;;;8.89;89.21;100195.06;4934153;29;20138;-88
2023/03/25 14:55:21;;;;;;;30.08;15.00;;;;;;;8.81;89.22;100189.69;4939779;29;20146;-89
2023/03/25 14:57:55;;;;;;;34.15;17.55;;;;;;;8.80;89.38;100193.34;4940478;29;20134;-88
2023/03/25 15:00:41;;;;;;;34.38;16.95;;;;;;;8.61;88.98;100181.88;4939708;29;20040;-89
2023/03/25 15:03:17;;;;;;;32.47;16.00;;;;;;;8.45;90.67;100174.59;4936263;29;20052;-89
2023/03/25 15:06:08;;;;;;;32.95;16.73;;;;;;;8.64;90.56;100205.69;4939344;29;20043;-91
2023/03/25 15:08:40;;;;;;;35.10;18.60;;;;;;;8.44;90.71;100172.06;4941350;29;20067;-88
2023/03/25 15:11:36;;;;;;;33.85;18.27;;;;;;;8.83;90.43;100209.13;4958890;28;20065;-90
2023/03/25 15:17:08;;;;;;;28.35;15.95;;;;;;;8.49;90.19;100195.72;4956941;29;19920;-87
2023/03/25 15:20:10;;;;;;;30.75;16.88;;;;;;;8.73;89.60;100203.03;4935180;29;20064;-87
2023/03/25 15:22:39;;;;;;;27.58;15.93;;;;;;;8.51;89.37;100191.88;4941923;29;20058;-87
2023/03/25 15:25:17;;;;;;;26.55;14.55;;;;;;;8.62;88.98;100206.84;4918938;29;20028;-92
2023/03/25 15:27:57;;;;;;;25.60;13.23;;;;;;;8.41;89.64;100201.88;4939344;29;20511;-89
2023/03/25 15:34:10;;;;;;;38.00;15.98;;;;;;;8.41;91.21;100217.94;4959355;29;20050;-89
2023/03/25 15:36:49;;;;;;;31.58;17.35;;;;;;;8.44;91.60;100206.91;4943724;29;20050;-89
2023/03/25 15:39:41;;;;;;;32.65;16.15;;;;;;;8.74;90.12;100216.28;4919739;29;20100;-90
2023/03/25 15:42:27;;;;;;;33.00;16.08;;;;;;;8.83;89.72;100220.69;4940740;29;20035;-89
2023/03/25 15:44:52;;;;;;;27.73;15.98;;;;;;;8.82;89.06;100199.38;4935365;29;20054;-90
2023/03/25 15:50:49;;;;;;;22.48;12.65;;;;;;;8.66;89.22;100219.78;4940364;29;20058;-91
2023/03/25 15:53:32;;;;;;;19.23;11.30;;;;;;;8.57;89.51;100215.38;4947408;29;20071;-90
2023/03/25 16:00:19;;;;;;;25.75;14.32;;;;;;;8.51;90.31;100213.31;4936797;29;20556;-92
2023/03/25 16:06:13;;;;;;;27.10;13.65;;;;;;;7.91;93.09;100160.47;4945604;29;20414;-91
2023/03/25 16:08:49;;;;;;;28.58;15.38;;;;;;;8.22;93.22;100197.53;4944575;29;20039;-90
2023/03/25 16:11:28;;;;;;;32.53;15.15;;;;;;;8.05;93.08;100169.78;4955170;29;20043;-90
2023/03/25 16:14:14;;;;;;;30.05;15.10;;;;;;;8.11;93.31;100182.56;4932754;29;20539;-88
2023/03/25 16:16:50;;;;;;;31.20;14.88;;;;;;;8.01;92.72;100165.75;4918156;29;20592;-90
2023/03/25 16:19:43;;;;;;;28.67;15.15;;;;;;;8.20;93.56;100192.31;4935156;29;20066;-90
2023/03/25 16:25:44;;;;;;;27.15;16.08;;;;;;;8.10;92.29;100162.13;4921358;29;20079;-91
2023/03/25 16:29:00;;;;;;;25.40;14.18;;;;;;;8.18;92.40;100172.06;4911025;29;20139;-89
2023/03/25 16:34:47;;;;;;;28.67;14.27;;;;;;;8.34;91.88;100190.06;4919787;29;20043;-93
2023/03/25 16:37:42;;;;;;;25.77;14.70;;;;;;;8.08;92.31;100155.22;4869927;29;20044;-93
2023/03/25 16:40:19;;;;;;;29.13;14.18;;;;;;;8.07;92.18;100161.59;4938711;28;20048;-92
2023/03/25 16:42:50;;;;;;;24.92;14.23;;;;;;;8.04;92.67;100158.22;4941833;28;20068;-92
2023/03/25 16:45:16;;;;;;;24.83;13.40;;;;;;;8.31;92.76;100185.00;4931195;29;20052;-89
2023/03/25 16:47:41;;;;;;;30.77;16.02;;;;;;;8.29;93.17;100176.28;4904521;29;20052;-91
2023/03/25 16:50:18;;;;;;;27.33;14.27;;;;;;;8.19;92.83;100171.91;4886140;29;20044;-91
2023/03/25 16:52:44;;;;;;;30.98;15.00;;;;;;;8.28;92.85;100169.28;4886543;29;20044;-93
2023/03/25 16:55:29;;;;;;;39.13;14.85;;;;;;;8.37;93.15;100195.94;4892231;29;20047;-93
2023/03/25 16:58:00;;;;;;;33.60;16.23;;;;;;;8.19;93.91;100166.56;4929577;29;20075;-94
2023/03/25 17:01:00;;;;;;;39.13;15.70;;;;;;;8.36;94.13;100180.03;4968298;23;20067;-95
2023/03/25 17:06:10;;;;;;;44.60;16.55;;;;;;;8.39;94.43;100209.19;5039851;23;19922;-93
2023/03/25 17:09:10;;;;;;;39.72;16.13;;;;;;;8.53;94.41;100208.63;4982586;23;20139;-92
2023/03/25 17:11:36;;;;;;;45.72;19.65;;;;;;;8.32;94.59;100181.34;4925799;29;20103;-94
2023/03/25 17:14:07;;;;;;;39.20;15.85;;;;;;;8.08;94.95;100156.09;4939913;29;20035;-95
2023/03/25 17:16:34;;;;;;;30.10;13.93;;;;;;;8.36;93.62;100198.81;4921644;29;20039;-95
2023/03/25 17:19:17;;;;;;;35.10;15.20;;;;;;;8.24;93.67;100188.34;4938300;28;20063;-92
2023/03/25 17:32:20;;;;;;;22.98;12.32;;;;;;;8.20;92.46;100175.41;4917316;29;20031;-92
2023/03/25 17:38:21;;;;;;;25.83;12.85;;;;;;;8.09;93.49;100183.72;4920890;29;20050;-90
2023/03/25 17:41:01;;;;;;;27.73;14.60;;;;;;;7.91;94.13;100181.06;4917957;29;20044;-91
2023/03/25 17:43:32;;;;;;;28.23;13.85;;;;;;;8.25;93.92;100205.25;4903471;29;20060;-92
2023/03/25 17:46:17;;;;;;;31.23;13.55;;;;;;;8.24;94.51;100217.81;4920817;29;20036;-92
2023/03/25 17:49:03;;;;;;;31.00;13.90;;;;;;;8.25;94.03;100208.75;4903779;29;20090;-94
2023/03/25 17:51:41;;;;;;;26.75;13.80;;;;;;;8.01;94.35;100169.28;4931548;29;20441;-91
2023/03/25 17:54:07;;;;;;;25.95;13.05;;;;;;;8.09;94.55;100173.00;4915168;29;20060;-91
2023/03/25 17:59:59;;;;;;;37.40;14.60;;;;;;;8.14;94.72;100192.94;4942889;29;20554;-92
2023/03/25 18:02:56;;;;;;;30.42;13.50;;;;;;;8.02;95.32;100197.72;4882900;29;20501;-93
2023/03/25 18:05:22;;;;;;;36.50;13.07;;;;;;;7.92;96.20;100209.53;4899464;29;20044;-92
2023/03/25 18:07:48;;;;;;;24.00;13.30;;;;;;;7.93;95.92;100187.09;4854022;29;20641;-92
2023/03/25 18:10:23;;;;;;;30.08;15.15;;;;;;;7.97;95.83;100194.66;4875396;29;20068;-92
2023/03/25 18:12:57;;;;;;;33.05;16.38;;;;;;;7.99;97.00;100207.91;4857965;29;20036;-90
2023/03/25 18:15:24;;;;;;;32.42;15.60;;;;;;;8.10;96.81;100207.66;4888430;29;20072;-90
2023/03/25 18:17:55;;;;;;;34.70;16.10;;;;;;;8.01;96.85;100209.44;4887186;29;20044;-89
2023/03/25 18:20:27;;;;;;;31.63;14.82;;;;;;;7.82;97.12;100166.78;4894947;29;20424;-91
2023/03/25 18:22:55;;;;;;;34.95;16.30;;;;;;;7.92;97.49;100188.94;4875343;29;20117;-91
2023/03/25 18:25:29;;;;;;;31.10;15.50;;;;;;;7.80;97.04;100174.13;4870642;29;20176;-90
2023/03/25 18:28:12;;;;;;;28.30;13.63;;;;;;;8.03;96.16;100211.97;4876474;29;20056;-94
2023/03/25 18:30:53;;;;;;;29.85;14.77;;;;;;;7.86;96.61;100210.13;4877794;29;20057;-91
2023/03/25 18:36:40;;;;;;;30.08;15.90;;;;;;;7.78;96.73;100181.47;4877738;29;20037;-91
2023/03/25 18:39:17;;;;;;;30.73;16.45;;;;;;;8.06;95.89;100200.09;4879910;29;20083;-90
2023/03/25 18:41:46;;;;;;;27.73;15.35;;;;;;;7.90;95.61;100180.22;4853311;29;20528;-91
2023/03/25 18:44:12;;;;;;;30.30;15.25;;;;;;;8.07;95.30;100178.50;4892393;29;20051;-90
2023/03/25 18:46:45;;;;;;;35.33;14.27;;;;;;;8.04;94.72;100160.91;4907782;29;20537;-92
2023/03/25 18:49:35;;;;;;;41.97;14.73;;;;;;;8.39;94.52;100203.84;4909383;29;20040;-90
2023/03/25 18:52:21;;;;;;;29.25;13.18;;;;;;;8.08;94.44;100150.75;4912997;29;20058;-91
2023/03/25 18:54:47;;;;;;;31.60;15.52;;;;;;;8.24;94.13;100169.59;4924867;29;20043;-92
2023/03/25 18:57:17;;;;;;;24.95;13.10;;;;;;;8.29;94.35;100200.41;4917686;29;20075;-93
2023/03/25 18:59:55;;;;;;;28.90;14.93;;;;;;;8.07;94.19;100167.78;4936652;29;20070;-95